Time;durP1;ratioP1;P1;durP2;ratioP2;P2;SDS_P1;SDS_P2;PMS_P1;PMS_P2;Temp;Humidity;BMP_temperature;BMP_pressure;BME280_temperature;BME280_humidity;BME280_pressure;Samples;Min_cycle;Max_cycle;Signal;HPM_P1;HPM_P2
2022/12/25 00:01:14;;;;;;;16.40;7.53;;;;;;;;;;5103495;28;20202;-84
2022/12/25 00:03:41;;;;;;;13.40;6.43;;;;;;;;;;5103339;28;20232;-84
2022/12/25 00:06:09;;;;;;;15.50;4.40;;;;;;;;;;5084913;28;20198;-84
2022/12/25 00:08:39;;;;;;;10.17;3.60;;;;;;;;;;5110649;27;20228;-84
2022/12/25 00:11:07;;;;;;;10.13;3.53;;;;;;;;;;5109041;28;20198;-84
2022/12/25 00:13:34;;;;;;;16.73;3.90;;;;;;;;;;5096518;28;20218;-84
2022/12/25 00:16:05;;;;;;;12.50;3.40;;;;;;;;;;5099041;28;20198;-84
2022/12/25 00:18:32;;;;;;;9.97;2.97;;;;;;;;;;5122261;27;20270;-84
2022/12/25 00:21:00;;;;;;;11.10;3.77;;;;;;;;;;5097752;28;20210;-84
2022/12/25 00:23:28;;;;;;;10.30;3.73;;;;;;;;;;5101247;28;20198;-84
2022/12/25 00:25:57;;;;;;;14.23;3.50;;;;;;;;;;5082577;28;20201;-84
2022/12/25 00:28:25;;;;;;;15.03;3.60;;;;;;;;;;5093760;28;20202;-84
2022/12/25 00:30:53;;;;;;;12.50;3.47;;;;;;;;;;5095659;28;20250;-84
2022/12/25 00:33:20;;;;;;;13.00;3.30;;;;;;;;;;5095225;28;20210;-84
2022/12/25 00:35:57;;;;;;;13.23;3.70;;;;;;;;;;5095483;28;20202;-84
2022/12/25 00:38:24;;;;;;;11.93;4.00;;;;;;;;;;5095290;28;20192;-84
2022/12/25 00:40:52;;;;;;;10.90;3.27;;;;;;;;;;5094756;28;20209;-84
2022/12/25 00:43:21;;;;;;;12.30;3.93;;;;;;;;;;5101963;28;20202;-84
2022/12/25 00:45:55;;;;;;;10.83;3.93;;;;;;;;;;5103552;28;20198;-84
2022/12/25 00:48:22;;;;;;;13.70;4.57;;;;;;;;;;5094228;28;20249;-84
2022/12/25 00:50:49;;;;;;;8.70;3.33;;;;;;;;;;5104424;28;20217;-84
2022/12/25 00:53:17;;;;;;;11.53;4.43;;;;;;;;;;5095149;28;20233;-84
2022/12/25 00:55:44;;;;;;;10.43;4.40;;;;;;;;;;5096116;28;20202;-84
2022/12/25 00:58:11;;;;;;;8.70;4.00;;;;;;;;;;5092514;28;20209;-84
2022/12/25 01:00:41;;;;;;;11.57;3.90;;;;;;;;;;5108443;28;20209;-84
2022/12/25 01:03:08;;;;;;;12.80;3.90;;;;;;;;;;5073130;28;20237;-84
2022/12/25 01:05:35;;;;;;;10.20;3.57;;;;;;;;;;5073853;28;20195;-84
2022/12/25 01:08:02;;;;;;;10.67;3.27;;;;;;;;;;5074119;28;20202;-84
2022/12/25 01:10:28;;;;;;;11.40;3.40;;;;;;;;;;5074640;28;20206;-84
2022/12/25 01:12:56;;;;;;;9.13;3.30;;;;;;;;;;5073841;28;20238;-84
2022/12/25 01:15:23;;;;;;;9.30;2.80;;;;;;;;;;5074655;28;20205;-84
2022/12/25 01:17:52;;;;;;;9.83;2.73;;;;;;;;;;5076472;28;20203;-84
2022/12/25 01:20:20;;;;;;;11.00;2.87;;;;;;;;;;5088179;28;20254;-84
2022/12/25 01:22:47;;;;;;;13.67;3.57;;;;;;;;;;5088831;28;20213;-84
2022/12/25 01:25:14;;;;;;;9.87;3.00;;;;;;;;;;5088422;28;20198;-84
2022/12/25 01:27:42;;;;;;;11.77;3.37;;;;;;;;;;5089235;28;20206;-84
2022/12/25 01:30:10;;;;;;;10.00;3.10;;;;;;;;;;5079574;28;20199;-84
2022/12/25 01:32:37;;;;;;;8.43;2.63;;;;;;;;;;5078539;28;20218;-84
2022/12/25 01:35:07;;;;;;;6.47;2.53;;;;;;;;;;5073628;28;20195;-84
2022/12/25 01:37:34;;;;;;;7.43;2.37;;;;;;;;;;5079218;28;20218;-84
2022/12/25 01:40:02;;;;;;;7.67;2.53;;;;;;;;;;5084897;28;20202;-84
2022/12/25 01:42:29;;;;;;;9.70;2.80;;;;;;;;;;5077859;28;20210;-84
2022/12/25 01:45:26;;;;;;;9.40;2.67;;;;;;;;;;5074357;28;20199;-84
2022/12/25 01:47:54;;;;;;;6.50;2.60;;;;;;;;;;5073530;28;20277;-84
2022/12/25 01:50:23;;;;;;;11.00;3.47;;;;;;;;;;5073363;28;20206;-84
2022/12/25 01:52:51;;;;;;;9.40;3.03;;;;;;;;;;5073917;28;20226;-84
2022/12/25 01:55:18;;;;;;;12.87;3.83;;;;;;;;;;5073450;28;20209;-84
2022/12/25 01:57:46;;;;;;;9.17;3.40;;;;;;;;;;5073888;28;20207;-84
2022/12/25 02:00:15;;;;;;;9.57;3.13;;;;;;;;;;5074417;28;20203;-84
2022/12/25 02:02:42;;;;;;;7.03;2.93;;;;;;;;;;5086730;28;20247;-84
2022/12/25 02:05:12;;;;;;;5.53;2.83;;;;;;;;;;5107558;28;20209;-84
2022/12/25 02:07:41;;;;;;;12.37;3.43;;;;;;;;;;5097935;28;20201;-84
2022/12/25 02:10:09;;;;;;;9.47;3.10;;;;;;;;;;5097886;28;20198;-84
2022/12/25 02:12:37;;;;;;;6.93;2.93;;;;;;;;;;5095584;28;20218;-84
2022/12/25 02:15:06;;;;;;;8.07;2.83;;;;;;;;;;5099920;28;20205;-84
2022/12/25 02:17:36;;;;;;;10.23;3.07;;;;;;;;;;5103952;28;20212;-84
2022/12/25 02:20:12;;;;;;;8.30;2.80;;;;;;;;;;5097347;28;20202;-84
2022/12/25 02:22:45;;;;;;;8.83;3.13;;;;;;;;;;5107656;28;20288;-84
2022/12/25 02:25:19;;;;;;;9.27;3.00;;;;;;;;;;5098014;28;20201;-84
2022/12/25 02:28:03;;;;;;;9.10;2.90;;;;;;;;;;5107850;28;20189;-84
2022/12/25 02:30:33;;;;;;;6.60;2.70;;;;;;;;;;5100906;28;20197;-84
2022/12/25 02:35:44;;;;;;;9.87;3.20;;;;;;;;;;5099683;28;20231;-84
2022/12/25 02:38:16;;;;;;;5.87;2.77;;;;;;;;;;5105080;28;20210;-84
2022/12/25 02:40:44;;;;;;;8.90;2.80;;;;;;;;;;5102147;28;20204;-84
2022/12/25 03:08:14;;;;;;;6.77;2.40;;;;;;;;;;5102016;28;20243;-84
2022/12/25 03:13:33;;;;;;;5.73;2.37;;;;;;;;;;5094928;28;20223;-84
2022/12/25 03:18:47;;;;;;;8.03;2.47;;;;;;;;;;5098417;28;20260;-84
2022/12/25 03:26:57;;;;;;;3.70;2.00;;;;;;;;;;5096853;28;20200;-84
2022/12/25 03:32:18;;;;;;;8.47;2.40;;;;;;;;;;5099129;28;20197;-84
2022/12/25 04:38:35;;;;;;;8.07;3.57;;;;;;;;;;5099896;28;20310;-84
2022/12/25 04:41:03;;;;;;;8.20;3.40;;;;;;;;;;5100857;28;20198;-84
2022/12/25 04:43:30;;;;;;;8.03;2.87;;;;;;;;;;5094645;28;20209;-84
2022/12/25 04:45:59;;;;;;;8.17;3.60;;;;;;;;;;5099403;28;20193;-84
2022/12/25 04:48:27;;;;;;;6.43;3.60;;;;;;;;;;5082614;28;20215;-84
2022/12/25 04:50:55;;;;;;;4.87;2.90;;;;;;;;;;5094467;28;20191;-84
2022/12/25 04:53:22;;;;;;;5.07;3.27;;;;;;;;;;5081572;28;20213;-84
2022/12/25 04:55:51;;;;;;;5.07;3.20;;;;;;;;;;5095136;28;20216;-84
2022/12/25 04:58:18;;;;;;;4.27;3.17;;;;;;;;;;5109338;28;20206;-84
2022/12/25 05:00:45;;;;;;;7.37;3.67;;;;;;;;;;5100828;28;20242;-84
2022/12/25 05:03:13;;;;;;;6.77;3.60;;;;;;;;;;5107899;28;20230;-84
2022/12/25 05:05:40;;;;;;;7.63;3.77;;;;;;;;;;5101723;28;20213;-84
2022/12/25 05:08:07;;;;;;;8.73;4.20;;;;;;;;;;5104225;28;20217;-84
2022/12/25 05:10:34;;;;;;;5.30;3.27;;;;;;;;;;5094900;28;20202;-84
2022/12/25 05:13:03;;;;;;;3.50;2.93;;;;;;;;;;5108497;28;20201;-84
2022/12/25 05:15:30;;;;;;;5.37;3.17;;;;;;;;;;5102028;28;20210;-84
2022/12/25 05:17:58;;;;;;;5.60;3.07;;;;;;;;;;5094898;28;20216;-84
2022/12/25 05:20:25;;;;;;;5.33;3.27;;;;;;;;;;5092583;28;20224;-85
2022/12/25 05:22:52;;;;;;;10.40;3.80;;;;;;;;;;5096181;28;20284;-84
2022/12/25 05:25:19;;;;;;;5.47;3.67;;;;;;;;;;5096849;28;20206;-84
2022/12/25 05:27:48;;;;;;;5.30;3.30;;;;;;;;;;5083928;28;20209;-84
2022/12/25 05:30:17;;;;;;;5.67;4.17;;;;;;;;;;5095279;28;20205;-84
2022/12/25 05:32:44;;;;;;;6.83;4.07;;;;;;;;;;5092785;28;20213;-84
2022/12/25 05:35:11;;;;;;;5.53;3.40;;;;;;;;;;5102205;27;20218;-84
2022/12/25 05:37:39;;;;;;;7.20;3.60;;;;;;;;;;5106154;28;20212;-84
2022/12/25 05:40:07;;;;;;;6.13;3.30;;;;;;;;;;5093812;28;20285;-84
2022/12/25 05:42:34;;;;;;;5.23;2.93;;;;;;;;;;5092787;28;20292;-84
2022/12/25 05:45:02;;;;;;;6.50;3.50;;;;;;;;;;5103598;27;20301;-84
2022/12/25 05:47:31;;;;;;;5.13;3.30;;;;;;;;;;5094499;28;20198;-85
2022/12/25 05:49:58;;;;;;;5.07;3.00;;;;;;;;;;5094071;28;20209;-84
2022/12/25 05:52:25;;;;;;;6.70;3.90;;;;;;;;;;5097513;28;20202;-84
2022/12/25 05:54:53;;;;;;;6.50;3.33;;;;;;;;;;5104942;28;20229;-84
2022/12/25 05:57:20;;;;;;;4.23;3.30;;;;;;;;;;5102975;28;20218;-84
2022/12/25 05:59:48;;;;;;;5.77;3.50;;;;;;;;;;5104940;28;20205;-84
2022/12/25 06:02:15;;;;;;;6.20;3.60;;;;;;;;;;5091446;28;20194;-84
2022/12/25 06:04:44;;;;;;;5.53;3.77;;;;;;;;;;5092986;28;20236;-84
2022/12/25 06:07:11;;;;;;;5.83;3.60;;;;;;;;;;5095272;28;20198;-84
2022/12/25 06:09:38;;;;;;;6.97;3.80;;;;;;;;;;5103611;28;20245;-84
2022/12/25 06:12:06;;;;;;;4.63;3.40;;;;;;;;;;5101853;28;20202;-84
2022/12/25 06:14:33;;;;;;;5.70;3.50;;;;;;;;;;5108928;28;20213;-84
2022/12/25 06:17:00;;;;;;;4.27;3.60;;;;;;;;;;5097032;28;20205;-84
2022/12/25 06:19:28;;;;;;;8.90;4.67;;;;;;;;;;5103848;28;20206;-84
2022/12/25 06:21:56;;;;;;;4.13;3.53;;;;;;;;;;5103990;28;20205;-84
2022/12/25 06:24:24;;;;;;;4.57;3.77;;;;;;;;;;5092969;28;20224;-83
2022/12/25 06:26:52;;;;;;;5.60;3.40;;;;;;;;;;5092735;28;20204;-84
2022/12/25 06:29:19;;;;;;;4.97;3.40;;;;;;;;;;5092746;28;20226;-83
2022/12/25 06:31:46;;;;;;;8.97;4.53;;;;;;;;;;5099954;28;20214;-84
2022/12/25 06:34:15;;;;;;;9.57;4.00;;;;;;;;;;5109559;28;20207;-83
2022/12/25 06:36:43;;;;;;;5.93;3.90;;;;;;;;;;5103591;28;20280;-83
2022/12/25 06:39:12;;;;;;;4.60;3.70;;;;;;;;;;5105889;28;20201;-83
2022/12/25 06:41:39;;;;;;;5.10;3.87;;;;;;;;;;5105919;28;20300;-83
2022/12/25 06:44:06;;;;;;;5.57;3.67;;;;;;;;;;5101112;28;20198;-82
2022/12/25 06:46:34;;;;;;;7.07;4.63;;;;;;;;;;5101735;28;20209;-83
2022/12/25 06:49:01;;;;;;;7.70;4.90;;;;;;;;;;5097656;28;20207;-82
2022/12/25 06:51:29;;;;;;;6.80;4.67;;;;;;;;;;5097623;28;20301;-83
2022/12/25 06:53:57;;;;;;;6.20;5.03;;;;;;;;;;5102625;28;20222;-83
2022/12/25 06:56:27;;;;;;;6.27;4.70;;;;;;;;;;5102204;28;20198;-83
2022/12/25 06:58:55;;;;;;;7.03;4.80;;;;;;;;;;5094194;28;20225;-83
2022/12/25 07:01:23;;;;;;;6.50;4.60;;;;;;;;;;5091832;28;20198;-83
2022/12/25 07:03:52;;;;;;;9.03;6.20;;;;;;;;;;5098080;28;20233;-83
2022/12/25 07:06:20;;;;;;;10.23;7.10;;;;;;;;;;5100706;28;20190;-83
2022/12/25 07:08:47;;;;;;;8.40;5.83;;;;;;;;;;5082855;28;20206;-83
2022/12/25 07:11:14;;;;;;;7.57;6.00;;;;;;;;;;5100310;28;20209;-83
2022/12/25 07:13:43;;;;;;;8.30;6.13;;;;;;;;;;5108915;28;20284;-83
2022/12/25 07:16:12;;;;;;;8.77;6.20;;;;;;;;;;5098256;28;20194;-83
2022/12/25 07:18:41;;;;;;;12.63;8.20;;;;;;;;;;5074591;28;20199;-84
2022/12/25 07:21:08;;;;;;;7.47;6.13;;;;;;;;;;5100556;28;20193;-83
2022/12/25 07:23:36;;;;;;;7.90;6.30;;;;;;;;;;5107558;28;20208;-84
2022/12/25 07:26:03;;;;;;;7.27;6.50;;;;;;;;;;5105593;28;20205;-83
2022/12/25 07:28:31;;;;;;;9.13;6.80;;;;;;;;;;5113056;28;20205;-83
2022/12/25 07:31:02;;;;;;;7.70;6.73;;;;;;;;;;5095730;28;20205;-83
2022/12/25 07:33:30;;;;;;;8.30;6.53;;;;;;;;;;5085962;28;20210;-83
2022/12/25 07:35:57;;;;;;;8.87;6.93;;;;;;;;;;5095235;28;20222;-83
2022/12/25 07:38:25;;;;;;;8.93;7.30;;;;;;;;;;5105004;28;20201;-83
2022/12/25 07:40:52;;;;;;;8.17;7.07;;;;;;;;;;5098636;28;20202;-83
2022/12/25 07:43:19;;;;;;;8.37;6.63;;;;;;;;;;5102311;28;20201;-83
2022/12/25 07:45:46;;;;;;;9.23;7.57;;;;;;;;;;5080441;28;20206;-83
2022/12/25 07:48:15;;;;;;;9.73;6.77;;;;;;;;;;5096586;28;20182;-83
2022/12/25 07:50:43;;;;;;;8.63;7.17;;;;;;;;;;5097153;28;20199;-83
2022/12/25 07:53:10;;;;;;;9.67;7.63;;;;;;;;;;5096866;28;20198;-83
2022/12/25 07:55:37;;;;;;;8.13;6.80;;;;;;;;;;5099448;28;20224;-83
2022/12/25 07:58:05;;;;;;;9.40;7.43;;;;;;;;;;5101609;28;20205;-83
2022/12/25 08:00:32;;;;;;;9.20;7.10;;;;;;;;;;5102979;28;20198;-82
2022/12/25 08:02:59;;;;;;;8.90;7.40;;;;;;;;;;5098332;28;20236;-84
2022/12/25 08:05:29;;;;;;;8.10;6.57;;;;;;;;;;5097669;28;20206;-83
2022/12/25 08:07:56;;;;;;;9.30;6.87;;;;;;;;;;5100258;28;20197;-83
2022/12/25 08:10:23;;;;;;;7.10;6.40;;;;;;;;;;5099161;28;20198;-84
2022/12/25 08:12:50;;;;;;;8.73;7.33;;;;;;;;;;5093885;28;20202;-84
2022/12/25 08:15:18;;;;;;;7.23;6.50;;;;;;;;;;5097249;28;20240;-83
2022/12/25 08:17:45;;;;;;;9.03;7.03;;;;;;;;;;5105007;28;20210;-83
2022/12/25 08:20:13;;;;;;;10.20;7.83;;;;;;;;;;5101789;28;20201;-84
2022/12/25 08:22:42;;;;;;;8.77;7.27;;;;;;;;;;5103285;28;20206;-82
2022/12/25 08:25:10;;;;;;;10.70;7.40;;;;;;;;;;5101064;28;20231;-81
2022/12/25 08:27:37;;;;;;;10.10;7.17;;;;;;;;;;5107341;28;20216;-82
2022/12/25 08:30:05;;;;;;;10.10;7.50;;;;;;;;;;5101979;28;20201;-83
2022/12/25 08:32:34;;;;;;;9.97;7.60;;;;;;;;;;5096063;28;20206;-81
2022/12/25 08:35:01;;;;;;;8.27;6.60;;;;;;;;;;5108184;28;20253;-82
2022/12/25 08:37:30;;;;;;;11.00;7.30;;;;;;;;;;5094154;28;20210;-82
2022/12/25 08:39:59;;;;;;;9.57;7.70;;;;;;;;;;5106234;28;20259;-83
2022/12/25 08:42:26;;;;;;;12.03;7.67;;;;;;;;;;5094193;28;20208;-82
2022/12/25 08:44:53;;;;;;;8.73;7.07;;;;;;;;;;5101261;28;20202;-86
2022/12/25 08:47:21;;;;;;;9.37;8.30;;;;;;;;;;5096526;28;20198;-82
2022/12/25 08:49:48;;;;;;;11.80;8.33;;;;;;;;;;5094274;28;20213;-84
2022/12/25 08:52:15;;;;;;;14.53;8.80;;;;;;;;;;5104488;28;20202;-83
2022/12/25 08:54:42;;;;;;;8.37;7.53;;;;;;;;;;5081656;28;20225;-81
2022/12/25 08:57:11;;;;;;;9.07;7.37;;;;;;;;;;5102495;28;20216;-82
2022/12/25 08:59:39;;;;;;;13.37;7.63;;;;;;;;;;5100249;28;20209;-84
2022/12/25 09:02:06;;;;;;;11.27;7.47;;;;;;;;;;5093647;28;20202;-84
2022/12/25 09:04:34;;;;;;;7.67;6.83;;;;;;;;;;5101456;28;20241;-83
2022/12/25 09:07:01;;;;;;;9.30;6.37;;;;;;;;;;5098718;28;20228;-83
2022/12/25 09:09:28;;;;;;;8.40;6.63;;;;;;;;;;5096101;28;20201;-83
2022/12/25 09:11:56;;;;;;;8.37;5.70;;;;;;;;;;5098855;28;20194;-85
2022/12/25 09:14:25;;;;;;;6.77;5.43;;;;;;;;;;5103530;28;20205;-84
2022/12/25 09:16:52;;;;;;;6.43;5.20;;;;;;;;;;5093001;28;20220;-85
2022/12/25 09:19:20;;;;;;;7.63;4.70;;;;;;;;;;5097038;28;20240;-83
2022/12/25 09:21:48;;;;;;;8.93;5.20;;;;;;;;;;5111600;27;20208;-84
2022/12/25 09:24:15;;;;;;;9.33;5.03;;;;;;;;;;5106742;28;20199;-83
2022/12/25 09:26:42;;;;;;;5.27;4.77;;;;;;;;;;5100648;28;20216;-83
2022/12/25 09:29:10;;;;;;;8.40;4.63;;;;;;;;;;5103780;28;20228;-83
2022/12/25 09:31:39;;;;;;;5.57;4.20;;;;;;;;;;5112203;28;20204;-83
2022/12/25 09:34:06;;;;;;;7.27;4.33;;;;;;;;;;5099352;28;20198;-82
2022/12/25 09:36:33;;;;;;;5.10;4.40;;;;;;;;;;5093447;27;20206;-84
2022/12/25 09:39:01;;;;;;;6.13;4.43;;;;;;;;;;5098546;28;20334;-85
2022/12/25 09:41:30;;;;;;;7.83;5.13;;;;;;;;;;5080034;28;20198;-85
2022/12/25 09:44:03;;;;;;;5.47;4.27;;;;;;;;;;5087604;28;20205;-85
2022/12/25 09:46:34;;;;;;;6.47;4.70;;;;;;;;;;5085005;27;20285;-86
2022/12/25 09:49:05;;;;;;;6.37;4.30;;;;;;;;;;5097888;28;20189;-83
2022/12/25 09:51:35;;;;;;;5.17;4.60;;;;;;;;;;5079332;28;20201;-86
2022/12/25 09:54:05;;;;;;;6.80;4.37;;;;;;;;;;5104485;28;20193;-83
2022/12/25 09:56:33;;;;;;;5.60;4.17;;;;;;;;;;5096498;28;20264;-86
2022/12/25 09:59:00;;;;;;;6.53;4.30;;;;;;;;;;5098764;28;20194;-88
2022/12/25 10:01:32;;;;;;;7.03;4.82;;;;;;;;;;5084014;28;20219;-88
2022/12/25 10:04:11;;;;;;;6.23;4.23;;;;;;;;;;5101760;28;20274;-86
2022/12/25 10:06:43;;;;;;;5.72;3.90;;;;;;;;;;5082026;28;20265;-88
2022/12/25 10:09:19;;;;;;;4.87;3.90;;;;;;;;;;5103165;28;20221;-91
2022/12/25 10:11:53;;;;;;;5.77;3.60;;;;;;;;;;5100965;28;20201;-86
2022/12/25 10:14:25;;;;;;;7.03;4.27;;;;;;;;;;5101174;28;20198;-88
2022/12/25 10:16:59;;;;;;;5.63;4.33;;;;;;;;;;5098577;28;20201;-90
2022/12/25 10:19:36;;;;;;;5.03;4.03;;;;;;;;;;5096026;28;20198;-90
2022/12/25 10:22:08;;;;;;;4.43;3.70;;;;;;;;;;5093729;28;20198;-87
2022/12/25 10:24:37;;;;;;;5.27;4.10;;;;;;;;;;5096318;28;20261;-86
2022/12/25 10:27:08;;;;;;;5.43;4.00;;;;;;;;;;5099376;28;20200;-86
2022/12/25 10:29:37;;;;;;;5.40;4.10;;;;;;;;;;5108770;28;20216;-87
2022/12/25 10:32:04;;;;;;;6.10;3.90;;;;;;;;;;5094830;28;20201;-86
2022/12/25 10:34:34;;;;;;;6.65;3.83;;;;;;;;;;5101454;28;20228;-87
2022/12/25 10:37:02;;;;;;;5.25;3.90;;;;;;;;;;5081413;28;20257;-87
2022/12/25 10:39:29;;;;;;;6.90;3.80;;;;;;;;;;5109661;28;20193;-88
2022/12/25 10:42:11;;;;;;;4.65;3.90;;;;;;;;;;5102603;28;20233;-86
2022/12/25 10:44:38;;;;;;;6.07;5.23;;;;;;;;;;5103229;28;20202;-86
2022/12/25 10:47:05;;;;;;;5.07;3.90;;;;;;;;;;5102273;28;20194;-86
2022/12/25 10:49:36;;;;;;;6.80;4.33;;;;;;;;;;5104130;28;20205;-87
2022/12/25 10:52:03;;;;;;;7.40;5.63;;;;;;;;;;5110107;27;20208;-86
2022/12/25 10:54:32;;;;;;;7.18;4.70;;;;;;;;;;5102987;28;20224;-87
2022/12/25 10:57:00;;;;;;;4.77;3.80;;;;;;;;;;5109695;27;20250;-86
2022/12/25 10:59:28;;;;;;;5.20;3.70;;;;;;;;;;5110623;28;20227;-87
2022/12/25 11:01:55;;;;;;;5.43;3.50;;;;;;;;;;5100873;28;20236;-87
2022/12/25 11:04:25;;;;;;;4.00;3.00;;;;;;;;;;5108517;28;20231;-87
2022/12/25 11:07:02;;;;;;;4.50;3.05;;;;;;;;;;5104357;28;20288;-87
2022/12/25 11:09:29;;;;;;;4.72;3.10;;;;;;;;;;5106226;28;20292;-87
2022/12/25 11:11:56;;;;;;;5.43;3.10;;;;;;;;;;5102339;28;20195;-88
2022/12/25 11:14:25;;;;;;;4.32;3.50;;;;;;;;;;5100323;28;20193;-87
2022/12/25 11:16:53;;;;;;;4.28;3.33;;;;;;;;;;5099279;28;20234;-86
2022/12/25 11:19:25;;;;;;;4.28;3.60;;;;;;;;;;5099468;28;20218;-87
2022/12/25 11:21:53;;;;;;;7.00;3.35;;;;;;;;;;5101538;28;20296;-87
2022/12/25 11:24:26;;;;;;;4.20;3.80;;;;;;;;;;5097339;27;20290;-92
2022/12/25 11:26:53;;;;;;;5.20;3.42;;;;;;;;;;5109154;27;20209;-87
2022/12/25 11:29:24;;;;;;;3.40;3.10;;;;;;;;;;5101616;28;20221;-86
2022/12/25 11:31:51;;;;;;;5.18;3.83;;;;;;;;;;5099891;28;20212;-87
2022/12/25 11:34:25;;;;;;;5.05;3.70;;;;;;;;;;5099184;28;20197;-88
2022/12/25 11:36:52;;;;;;;7.30;3.67;;;;;;;;;;5097051;28;20503;-88
2022/12/25 11:39:24;;;;;;;5.97;3.90;;;;;;;;;;5116026;28;20193;-89
2022/12/25 11:41:53;;;;;;;6.30;4.60;;;;;;;;;;5097338;28;20202;-87
2022/12/25 11:44:26;;;;;;;4.45;4.03;;;;;;;;;;5098886;28;20285;-89
2022/12/25 11:46:55;;;;;;;5.13;4.45;;;;;;;;;;5096093;28;20221;-87
2022/12/25 11:49:22;;;;;;;5.18;4.13;;;;;;;;;;5102372;28;20205;-88
2022/12/25 11:51:52;;;;;;;4.32;3.83;;;;;;;;;;5097179;28;20202;-88
2022/12/25 11:54:23;;;;;;;7.88;3.92;;;;;;;;;;5113564;28;20202;-87
2022/12/25 11:56:51;;;;;;;4.40;3.83;;;;;;;;;;5109028;28;20229;-88
2022/12/25 11:59:22;;;;;;;7.47;4.13;;;;;;;;;;5097374;28;20254;-92
2022/12/25 12:01:52;;;;;;;5.18;4.55;;;;;;;;;;5105453;28;20232;-90
2022/12/25 12:04:22;;;;;;;5.13;3.85;;;;;;;;;;5101047;28;20240;-88
2022/12/25 12:06:56;;;;;;;8.23;4.93;;;;;;;;;;5101927;28;20201;-93
2022/12/25 12:09:27;;;;;;;4.72;3.78;;;;;;;;;;5099582;28;20202;-87
2022/12/25 12:11:59;;;;;;;6.28;4.00;;;;;;;;;;5095581;28;20285;-87
2022/12/25 12:14:32;;;;;;;7.43;4.65;;;;;;;;;;5099831;28;20212;-89
2022/12/25 12:17:00;;;;;;;5.57;4.43;;;;;;;;;;5108614;28;20237;-89
2022/12/25 12:19:29;;;;;;;5.25;4.45;;;;;;;;;;5103024;28;20209;-89
2022/12/25 12:21:58;;;;;;;5.85;4.20;;;;;;;;;;5097594;28;20194;-89
2022/12/25 12:24:30;;;;;;;5.15;4.57;;;;;;;;;;5096349;28;20218;-87
2022/12/25 12:27:03;;;;;;;5.93;4.43;;;;;;;;;;5099013;28;20271;-85
2022/12/25 12:32:25;;;;;;;5.43;4.93;;;;;;;;;;5090638;28;20201;-85
2022/12/25 12:34:53;;;;;;;5.43;4.40;;;;;;;;;;5096421;28;20205;-85
2022/12/25 12:37:26;;;;;;;6.18;4.03;;;;;;;;;;5099672;28;20234;-86
2022/12/25 12:39:54;;;;;;;4.63;4.13;;;;;;;;;;5102313;28;20208;-86
2022/12/25 12:42:26;;;;;;;5.72;4.93;;;;;;;;;;5101687;28;20309;-85
2022/12/25 12:44:54;;;;;;;5.45;4.90;;;;;;;;;;5104830;28;20201;-85
2022/12/25 12:47:32;;;;;;;6.18;4.07;;;;;;;;;;5098163;27;20191;-87
2022/12/25 12:50:00;;;;;;;4.95;4.43;;;;;;;;;;5105133;28;20197;-85
2022/12/25 12:52:31;;;;;;;7.55;4.80;;;;;;;;;;5106168;28;20268;-86
2022/12/25 12:55:01;;;;;;;6.32;4.75;;;;;;;;;;5092640;28;20317;-86
2022/12/25 12:57:31;;;;;;;6.40;5.20;;;;;;;;;;5085757;28;20229;-85
2022/12/25 13:00:00;;;;;;;5.55;4.50;;;;;;;;;;5092735;28;20252;-86
2022/12/25 13:02:51;;;;;;;5.38;4.82;;;;;;;;;;5096696;28;20202;-86
2022/12/25 13:05:21;;;;;;;8.02;4.90;;;;;;;;;;5083680;28;20220;-86
2022/12/25 13:07:54;;;;;;;5.32;4.80;;;;;;;;;;5084046;28;20216;-86
2022/12/25 13:10:24;;;;;;;6.18;4.70;;;;;;;;;;5087611;28;20221;-86
2022/12/25 13:12:58;;;;;;;6.07;4.80;;;;;;;;;;5103899;28;20198;-86
2022/12/25 13:15:27;;;;;;;7.43;5.07;;;;;;;;;;5098505;28;20210;-86
2022/12/25 13:17:56;;;;;;;5.65;5.10;;;;;;;;;;5100955;28;20288;-85
2022/12/25 13:20:25;;;;;;;6.13;4.85;;;;;;;;;;5095634;28;20198;-85
2022/12/25 13:22:52;;;;;;;5.55;5.03;;;;;;;;;;5097051;28;20202;-86
2022/12/25 13:25:20;;;;;;;5.30;4.55;;;;;;;;;;5097748;28;20228;-85
2022/12/25 13:27:56;;;;;;;6.30;4.68;;;;;;;;;;5096397;28;20206;-86
2022/12/25 13:30:25;;;;;;;5.75;5.10;;;;;;;;;;5097313;28;20208;-87
2022/12/25 13:32:52;;;;;;;5.20;4.55;;;;;;;;;;5095664;28;20198;-87
2022/12/25 13:35:21;;;;;;;7.43;5.10;;;;;;;;;;5098823;28;20233;-86
2022/12/25 13:37:49;;;;;;;5.80;5.15;;;;;;;;;;5082504;28;20239;-85
2022/12/25 13:40:21;;;;;;;5.68;5.15;;;;;;;;;;5102900;28;20198;-85
2022/12/25 13:42:48;;;;;;;7.57;5.13;;;;;;;;;;5098121;28;20190;-85
2022/12/25 13:45:22;;;;;;;6.07;5.45;;;;;;;;;;5103158;28;20194;-86
2022/12/25 13:47:50;;;;;;;7.25;5.55;;;;;;;;;;5103692;28;20197;-85
2022/12/25 13:50:21;;;;;;;5.75;4.70;;;;;;;;;;5108045;28;20196;-85
2022/12/25 13:52:48;;;;;;;5.28;4.72;;;;;;;;;;5099315;28;20206;-86
2022/12/25 13:55:17;;;;;;;5.20;4.70;;;;;;;;;;5095549;28;20216;-87
2022/12/25 13:57:46;;;;;;;5.85;5.25;;;;;;;;;;5095681;28;20240;-83
2022/12/25 14:00:18;;;;;;;7.38;5.07;;;;;;;;;;5094272;28;20268;-84
2022/12/25 14:02:48;;;;;;;6.65;5.07;;;;;;;;;;5094088;28;20238;-85
2022/12/25 14:05:23;;;;;;;5.63;5.00;;;;;;;;;;5095227;28;20281;-84
2022/12/25 14:07:52;;;;;;;8.95;5.32;;;;;;;;;;5097455;28;20201;-84
2022/12/25 14:10:20;;;;;;;5.80;5.00;;;;;;;;;;5082859;28;20198;-86
2022/12/25 14:12:49;;;;;;;6.07;5.20;;;;;;;;;;5102768;28;20206;-88
2022/12/25 14:15:19;;;;;;;6.10;5.20;;;;;;;;;;5102481;28;20198;-86
2022/12/25 14:17:47;;;;;;;5.97;4.80;;;;;;;;;;5097710;28;20326;-84
2022/12/25 14:20:22;;;;;;;5.80;5.20;;;;;;;;;;5091214;28;20198;-83
2022/12/25 14:22:51;;;;;;;7.57;5.00;;;;;;;;;;5096382;28;20216;-88
2022/12/25 14:25:19;;;;;;;6.25;5.15;;;;;;;;;;5096884;28;20198;-83
2022/12/25 14:27:49;;;;;;;5.95;4.90;;;;;;;;;;5094287;28;20209;-86
2022/12/25 14:30:17;;;;;;;7.05;4.88;;;;;;;;;;5097128;28;20211;-89
2022/12/25 14:32:45;;;;;;;5.82;5.18;;;;;;;;;;5101259;28;20205;-88
2022/12/25 14:35:14;;;;;;;5.78;5.22;;;;;;;;;;5098427;28;20202;-87
2022/12/25 14:37:43;;;;;;;5.88;5.03;;;;;;;;;;5094639;28;20217;-88
2022/12/25 14:40:21;;;;;;;6.30;5.35;;;;;;;;;;5096244;28;20229;-91
2022/12/25 14:42:55;;;;;;;7.93;5.55;;;;;;;;;;5099684;28;20243;-89
2022/12/25 14:45:26;;;;;;;6.80;5.75;;;;;;;;;;5100071;28;20201;-86
2022/12/25 14:47:55;;;;;;;8.43;5.90;;;;;;;;;;5099152;28;20220;-85
2022/12/25 14:50:27;;;;;;;7.18;6.13;;;;;;;;;;5096266;28;20202;-87
2022/12/25 14:52:55;;;;;;;9.07;7.43;;;;;;;;;;5100516;28;20292;-88
2022/12/25 14:55:24;;;;;;;6.20;5.60;;;;;;;;;;5091011;28;20210;-85
2022/12/25 14:57:54;;;;;;;6.35;4.88;;;;;;;;;;5095242;28;20227;-87
2022/12/25 15:00:23;;;;;;;6.72;4.72;;;;;;;;;;5098363;28;20190;-87
2022/12/25 15:02:50;;;;;;;6.05;4.93;;;;;;;;;;5097739;28;20205;-83
2022/12/25 15:05:25;;;;;;;5.63;5.03;;;;;;;;;;5097818;28;20194;-87
2022/12/25 15:08:02;;;;;;;7.18;5.40;;;;;;;;;;5097142;28;20208;-88
2022/12/25 15:10:29;;;;;;;6.03;4.68;;;;;;;;;;5100679;28;20227;-88
2022/12/25 15:12:57;;;;;;;6.10;5.40;;;;;;;;;;5093391;28;20213;-84
2022/12/25 15:15:25;;;;;;;5.60;4.90;;;;;;;;;;5093552;28;20262;-87
2022/12/25 15:17:52;;;;;;;5.30;4.80;;;;;;;;;;5096419;28;20225;-87
2022/12/25 15:20:20;;;;;;;7.05;5.70;;;;;;;;;;5092122;28;20198;-85
2022/12/25 15:22:48;;;;;;;5.15;4.63;;;;;;;;;;5094269;28;20206;-86
2022/12/25 15:25:19;;;;;;;8.70;4.50;;;;;;;;;;5103865;28;20206;-90
2022/12/25 15:27:46;;;;;;;5.40;4.80;;;;;;;;;;5099244;28;20446;-86
2022/12/25 15:30:14;;;;;;;6.75;5.15;;;;;;;;;;5106203;28;20193;-87
2022/12/25 15:32:41;;;;;;;5.80;4.53;;;;;;;;;;5099289;28;20293;-89
2022/12/25 15:35:13;;;;;;;5.55;4.70;;;;;;;;;;5102033;28;20230;-87
2022/12/25 15:37:41;;;;;;;5.25;4.75;;;;;;;;;;5101252;28;20218;-90
2022/12/25 15:40:10;;;;;;;6.75;5.43;;;;;;;;;;5094690;28;20198;-86
2022/12/25 15:42:38;;;;;;;7.68;5.75;;;;;;;;;;5096041;28;20206;-89
2022/12/25 15:45:07;;;;;;;9.90;7.90;;;;;;;;;;5099371;28;20206;-86
2022/12/25 15:47:34;;;;;;;6.90;6.20;;;;;;;;;;5104768;28;20202;-83
2022/12/25 15:50:01;;;;;;;5.80;5.22;;;;;;;;;;5097853;28;20206;-89
2022/12/25 15:52:28;;;;;;;6.10;5.50;;;;;;;;;;5100004;28;20209;-87
2022/12/25 15:54:55;;;;;;;5.80;5.20;;;;;;;;;;5100409;28;20201;-87
2022/12/25 15:57:25;;;;;;;6.05;5.45;;;;;;;;;;5099187;28;20222;-89
2022/12/25 15:59:54;;;;;;;6.70;4.90;;;;;;;;;;5103452;28;20202;-91
2022/12/25 16:02:21;;;;;;;6.18;4.85;;;;;;;;;;5094800;28;20205;-88
2022/12/25 16:04:49;;;;;;;5.90;5.20;;;;;;;;;;5097390;28;20244;-91
2022/12/25 16:07:18;;;;;;;5.43;4.35;;;;;;;;;;5100851;28;20240;-85
2022/12/25 16:09:45;;;;;;;6.43;4.80;;;;;;;;;;5099583;28;20201;-83
2022/12/25 16:12:13;;;;;;;6.05;5.07;;;;;;;;;;5102437;28;20198;-83
2022/12/25 16:14:40;;;;;;;5.40;4.80;;;;;;;;;;5079772;28;20202;-88
2022/12/25 16:17:12;;;;;;;5.60;4.80;;;;;;;;;;5101663;28;20225;-85
2022/12/25 16:19:40;;;;;;;5.45;4.95;;;;;;;;;;5099639;27;20195;-91
2022/12/25 16:22:11;;;;;;;6.25;4.55;;;;;;;;;;5100092;27;20212;-89
2022/12/25 16:24:39;;;;;;;6.97;4.93;;;;;;;;;;5105945;28;20213;-85
2022/12/25 16:27:06;;;;;;;6.60;4.30;;;;;;;;;;5105594;28;20272;-85
2022/12/25 16:29:33;;;;;;;5.17;4.50;;;;;;;;;;5102178;28;20233;-85
2022/12/25 16:32:00;;;;;;;6.38;4.63;;;;;;;;;;5096476;28;20198;-86
2022/12/25 16:34:29;;;;;;;4.90;4.30;;;;;;;;;;5102028;27;20201;-86
2022/12/25 16:36:57;;;;;;;6.03;4.57;;;;;;;;;;5098372;28;20218;-84
2022/12/25 16:39:24;;;;;;;6.00;4.55;;;;;;;;;;5094877;28;20206;-85